Terminal Aerodrome Forecast
Issued by NWS Amarillo, TX

Home | Current Version | Previous Version | Text Only | Print | Product List | Glossary On
Versions: 1 2 3 4 5 6 7 8 9 10 11 12 13 14 15 16 17 18 19 20 21 22 23 24
000
FTUS44 KAMA 230900 AAC
TAFDHT
TAF AMD
KDHT 230922Z 2309/2406 16011KT P6SM BKN003 OVC025
      TEMPO 2309/2313 VRB20G35KT 2SM +TSRA BR SCT005 BKN035CB
     FM231300 14010KT 5SM -TSRA VCTS OVC006CB
     FM231600 16014KT 6SM BR OVC008
     FM232000 17018G28KT P6SM SCT010 BKN030
     FM240400 16014KT P6SM OVC010=

USA.gov is the U.S. government's official web portal to all federal, state and local government web resources and services.